createdAt,value
2023-06-04T00:01:17.163Z,73.20
2023-06-04T00:03:44.797Z,73.30
2023-06-04T00:06:12.177Z,73.40
2023-06-04T00:08:39.241Z,73.40
2023-06-04T00:11:06.444Z,73.40
2023-06-04T00:13:33.847Z,73.50
2023-06-04T00:16:00.846Z,73.50
2023-06-04T00:18:27.901Z,73.60
2023-06-04T00:20:54.866Z,73.70
2023-06-04T00:23:22.023Z,73.70
2023-06-04T00:25:49.077Z,73.80
2023-06-04T00:28:16.120Z,73.80
2023-06-04T00:30:43.039Z,73.90
2023-06-04T00:33:09.988Z,73.90
2023-06-04T00:35:36.991Z,74.00
2023-06-04T00:38:04.015Z,74.10
2023-06-04T00:40:31.019Z,74.10
2023-06-04T00:42:58.850Z,74.20
2023-06-04T00:45:27.338Z,74.30
2023-06-04T00:47:54.553Z,74.30
2023-06-04T00:50:22.390Z,74.30
2023-06-04T00:52:51.436Z,74.40
2023-06-04T00:55:19.764Z,74.40
2023-06-04T00:57:47.118Z,74.50
2023-06-04T01:00:15.320Z,74.50
2023-06-04T01:02:44.979Z,74.70
2023-06-04T01:05:35.419Z,74.60
2023-06-04T01:08:02.809Z,74.70
2023-06-04T01:10:29.741Z,74.80
2023-06-04T01:12:56.766Z,74.70
2023-06-04T01:15:23.893Z,74.80
2023-06-04T01:17:58.493Z,74.80
2023-06-04T01:20:41.298Z,74.80
2023-06-04T01:23:14.262Z,74.90
2023-06-04T01:25:45.036Z,74.90
2023-06-04T01:28:13.728Z,74.90
2023-06-04T01:30:44.284Z,74.90
2023-06-04T01:33:17.709Z,74.90
2023-06-04T01:35:45.082Z,74.90
2023-06-04T01:38:12.623Z,74.80
2023-06-04T01:40:39.608Z,74.90
2023-06-04T01:43:06.713Z,74.90
2023-06-04T01:45:57.827Z,74.90
2023-06-04T01:48:25.124Z,74.90
2023-06-04T01:50:52.227Z,74.90
2023-06-04T01:53:19.763Z,74.90
2023-06-04T01:55:46.936Z,74.90
2023-06-04T01:58:16.424Z,74.90
2023-06-04T02:00:50.863Z,74.90
2023-06-04T02:03:20.279Z,74.90
2023-06-04T02:05:50.794Z,74.90
2023-06-04T02:08:20.258Z,74.90
2023-06-04T02:10:50.776Z,74.90
2023-06-04T02:13:17.928Z,74.90
2023-06-04T02:15:45.296Z,74.90
2023-06-04T02:18:20.066Z,74.90
2023-06-04T02:20:47.642Z,74.90
2023-06-04T02:23:16.767Z,74.90
2023-06-04T02:25:45.845Z,74.90
2023-06-04T02:28:13.788Z,74.90
2023-06-04T02:30:40.857Z,74.90
2023-06-04T02:33:11.042Z,74.80
2023-06-04T02:35:38.750Z,74.80
2023-06-04T02:38:06.373Z,74.80
2023-06-04T02:40:33.364Z,74.80
2023-06-04T02:43:00.294Z,74.80
2023-06-04T02:45:27.521Z,74.80
2023-06-04T02:47:54.886Z,74.80
2023-06-04T02:50:22.607Z,74.80
2023-06-04T02:52:52.401Z,74.80
2023-06-04T02:55:19.678Z,74.70
2023-06-04T02:57:46.738Z,74.70
2023-06-04T03:00:15.322Z,74.70
2023-06-04T03:02:48.374Z,74.70
2023-06-04T03:05:18.849Z,74.70
2023-06-04T03:07:47.489Z,74.70
2023-06-04T03:10:16.614Z,74.60
2023-06-04T03:12:43.923Z,74.60
2023-06-04T03:15:11.675Z,74.60
2023-06-04T03:17:38.875Z,74.60
2023-06-04T03:20:08.412Z,74.60
2023-06-04T03:22:37.065Z,74.60
2023-06-04T03:25:07.681Z,74.60
2023-06-04T03:27:34.984Z,74.60
2023-06-04T03:30:02.655Z,74.60
2023-06-04T03:32:30.064Z,74.60
2023-06-04T03:34:57.038Z,74.60
2023-06-04T03:37:24.021Z,74.50
2023-06-04T03:39:50.982Z,74.50
2023-06-04T03:42:18.142Z,74.50
2023-06-04T03:44:45.058Z,74.50
2023-06-04T03:47:12.146Z,74.50
2023-06-04T03:49:40.224Z,74.50
2023-06-04T03:52:07.189Z,74.50
2023-06-04T03:54:34.477Z,74.50
2023-06-04T03:57:01.478Z,74.50
2023-06-04T03:59:28.979Z,74.50
2023-06-04T04:01:55.977Z,74.50
2023-06-04T04:04:23.155Z,74.50
2023-06-04T04:06:50.313Z,74.50
2023-06-04T04:09:17.442Z,74.50
2023-06-04T04:11:44.373Z,74.50
2023-06-04T04:14:11.279Z,74.40
2023-06-04T04:16:38.262Z,74.50
2023-06-04T04:19:05.303Z,74.40
2023-06-04T04:21:32.343Z,74.50
2023-06-04T04:23:59.374Z,74.50
2023-06-04T04:26:28.845Z,74.40
2023-06-04T04:29:01.520Z,74.40
2023-06-04T04:31:28.982Z,74.40
2023-06-04T04:33:59.258Z,74.50
2023-06-04T04:36:27.281Z,75.00
2023-06-04T04:38:55.773Z,74.40
2023-06-04T04:41:24.343Z,74.40
2023-06-04T04:43:54.499Z,74.40
2023-06-04T04:46:22.719Z,74.40
2023-06-04T04:48:49.741Z,74.40
2023-06-04T04:51:17.953Z,74.40
2023-06-04T04:53:45.220Z,74.40
2023-06-04T04:56:13.551Z,74.40
2023-06-04T04:58:41.254Z,74.30
2023-06-04T05:01:08.432Z,74.40
2023-06-04T05:03:35.702Z,74.40
2023-06-04T05:06:03.127Z,74.40
2023-06-04T05:08:32.303Z,74.40
2023-06-04T05:10:59.271Z,74.40
2023-06-04T05:13:26.681Z,74.30
2023-06-04T05:15:54.048Z,74.40
2023-06-04T05:18:23.099Z,74.40
2023-06-04T05:20:50.299Z,74.40
2023-06-04T05:23:17.437Z,74.40
2023-06-04T05:25:44.605Z,74.50
2023-06-04T05:28:14.988Z,74.50
2023-06-04T05:30:42.705Z,74.50
2023-06-04T05:33:18.917Z,74.50
2023-06-04T05:35:49.447Z,74.60
2023-06-04T05:38:18.773Z,74.50
2023-06-04T05:40:47.190Z,74.60
2023-06-04T05:43:14.743Z,74.60
2023-06-04T05:45:41.711Z,74.60
2023-06-04T05:48:09.789Z,74.70
2023-06-04T05:50:37.145Z,75.30
2023-06-04T05:53:04.634Z,74.70
2023-06-04T05:55:31.856Z,74.70
2023-06-04T05:57:58.989Z,74.80
2023-06-04T06:00:27.494Z,74.80
2023-06-04T06:02:55.046Z,74.80
2023-06-04T06:05:22.522Z,74.80
2023-06-04T06:07:50.880Z,74.80
2023-06-04T06:10:19.506Z,74.80
2023-06-04T06:12:46.790Z,74.80
2023-06-04T06:15:13.802Z,74.90
2023-06-04T06:17:40.879Z,74.90
2023-06-04T06:20:50.275Z,74.90
2023-06-04T06:23:59.167Z,75.00
2023-06-04T06:26:26.420Z,75.00
2023-06-04T06:28:55.881Z,75.00
2023-06-04T06:31:25.315Z,75.10
2023-06-04T06:33:53.139Z,75.10
2023-06-04T06:36:21.121Z,75.10
2023-06-04T06:38:48.135Z,75.10
2023-06-04T06:41:15.260Z,75.10
2023-06-04T06:43:42.250Z,75.20
2023-06-04T06:46:09.329Z,75.20
2023-06-04T06:48:37.311Z,75.20
2023-06-04T06:51:04.460Z,75.20
2023-06-04T06:53:31.485Z,75.30
2023-06-04T06:55:58.441Z,75.30
2023-06-04T06:58:26.613Z,75.30
2023-06-04T07:00:55.869Z,75.30
2023-06-04T07:03:24.211Z,75.30
2023-06-04T07:05:51.292Z,75.40
2023-06-04T07:08:18.765Z,75.40
2023-06-04T07:10:46.018Z,75.40
2023-06-04T07:13:14.195Z,75.50
2023-06-04T07:15:41.100Z,75.50
2023-06-04T07:18:08.243Z,75.60
2023-06-04T07:20:35.243Z,75.50
2023-06-04T07:23:02.540Z,75.60
2023-06-04T07:25:29.585Z,75.60
2023-06-04T07:27:59.391Z,75.70
2023-06-04T07:30:27.096Z,75.70
2023-06-04T07:32:54.149Z,75.70
2023-06-04T07:35:21.186Z,75.70
2023-06-04T07:37:50.140Z,75.70
2023-06-04T07:40:17.900Z,75.90
2023-06-04T07:42:49.508Z,75.90
2023-06-04T07:45:20.785Z,75.80
2023-06-04T07:48:03.641Z,75.90
2023-06-04T07:50:33.724Z,75.90
2023-06-04T07:53:02.928Z,75.90
2023-06-04T07:55:30.102Z,75.90
2023-06-04T07:57:58.402Z,76.00
2023-06-04T08:00:26.444Z,76.00
2023-06-04T08:02:54.025Z,76.00
2023-06-04T08:05:20.992Z,76.00
2023-06-04T08:07:48.655Z,76.00
2023-06-04T08:10:16.160Z,76.10
2023-06-04T08:12:43.189Z,76.10
2023-06-04T08:15:12.018Z,76.10
2023-06-04T08:17:39.462Z,76.20
2023-06-04T08:20:13.022Z,76.20
2023-06-04T08:22:40.519Z,76.20
2023-06-04T08:25:08.356Z,76.00
2023-06-04T08:27:35.713Z,75.80
2023-06-04T08:30:03.276Z,75.60
2023-06-04T08:32:30.255Z,75.30
2023-06-04T08:34:57.418Z,75.90
2023-06-04T08:37:26.094Z,75.10
2023-06-04T08:39:54.429Z,74.90
2023-06-04T08:42:32.872Z,74.80
2023-06-04T08:45:00.035Z,74.60
2023-06-04T08:47:28.941Z,74.50
2023-06-04T08:50:03.082Z,74.40
2023-06-04T08:52:30.393Z,74.40
2023-06-04T08:54:57.966Z,74.20
2023-06-04T08:57:25.188Z,74.10
2023-06-04T08:59:52.413Z,74.00
2023-06-04T09:02:19.591Z,73.90
2023-06-04T09:04:49.495Z,73.80
2023-06-04T09:07:18.395Z,73.70
2023-06-04T09:09:52.479Z,73.60
2023-06-04T09:12:31.372Z,73.50
2023-06-04T09:14:58.982Z,73.30
2023-06-04T09:17:26.519Z,73.20
2023-06-04T09:19:53.460Z,73.10
2023-06-04T09:22:20.492Z,73.00
2023-06-04T09:24:50.928Z,73.00
2023-06-04T09:27:19.420Z,72.90
2023-06-04T09:29:58.386Z,72.80
2023-06-04T09:32:30.741Z,72.70
2023-06-04T09:35:11.499Z,72.60
2023-06-04T09:37:52.733Z,72.50
2023-06-04T09:40:20.088Z,72.40
2023-06-04T09:42:55.203Z,72.40
2023-06-04T09:45:33.276Z,72.30
2023-06-04T09:48:01.233Z,72.20
2023-06-04T09:50:40.718Z,72.10
2023-06-04T09:53:34.364Z,72.00
2023-06-04T09:56:03.014Z,72.00
2023-06-04T09:58:30.838Z,71.90
2023-06-04T10:01:00.021Z,71.90
2023-06-04T10:03:32.002Z,71.90
2023-06-04T10:05:59.352Z,71.80
2023-06-04T10:08:30.243Z,71.70
2023-06-04T10:11:01.473Z,71.70
2023-06-04T10:13:36.758Z,71.70
2023-06-04T10:16:04.709Z,71.60
2023-06-04T10:18:33.571Z,71.60
2023-06-04T10:21:00.857Z,71.60
2023-06-04T10:23:28.566Z,71.50
2023-06-04T10:25:55.601Z,71.50
2023-06-04T10:28:24.181Z,71.50
2023-06-04T10:30:52.039Z,71.50
2023-06-04T10:33:25.539Z,71.40
2023-06-04T10:35:59.550Z,71.40
2023-06-04T10:38:26.940Z,71.30
2023-06-04T10:40:55.246Z,71.30
2023-06-04T10:43:22.236Z,71.30
2023-06-04T10:46:13.179Z,71.20
2023-06-04T10:49:28.907Z,71.20
2023-06-04T10:52:11.616Z,71.30
2023-06-04T10:54:38.828Z,71.30
2023-06-04T10:57:16.737Z,71.20
2023-06-04T11:00:07.439Z,71.20
2023-06-04T11:02:34.608Z,71.10
2023-06-04T11:05:10.591Z,71.10
2023-06-04T11:07:48.779Z,71.20
2023-06-04T11:10:18.605Z,71.10
2023-06-04T11:12:54.513Z,71.10
2023-06-04T11:15:22.050Z,71.10
2023-06-04T11:18:02.636Z,71.10
2023-06-04T11:20:29.690Z,71.10
2023-06-04T11:22:58.250Z,71.00
2023-06-04T11:25:33.337Z,71.10
2023-06-04T11:28:05.708Z,71.10
2023-06-04T11:30:32.766Z,71.10
2023-06-04T11:33:11.416Z,71.10
2023-06-04T11:35:43.140Z,71.00
2023-06-04T11:38:10.948Z,71.10
2023-06-04T11:40:37.915Z,71.10
2023-06-04T11:43:06.187Z,71.10
2023-06-04T11:45:33.279Z,71.10
2023-06-04T11:48:00.654Z,71.10
2023-06-04T11:50:29.944Z,71.10
2023-06-04T11:52:59.328Z,71.10
2023-06-04T11:55:31.111Z,71.20
2023-06-04T11:58:02.053Z,71.20
2023-06-04T12:00:31.386Z,71.30
2023-06-04T12:02:58.949Z,71.30
2023-06-04T12:05:33.701Z,71.90
2023-06-04T12:08:09.761Z,71.40
2023-06-04T12:10:47.094Z,71.40
2023-06-04T12:13:14.218Z,71.40
2023-06-04T12:15:41.358Z,71.40
2023-06-04T12:18:08.535Z,71.50
2023-06-04T12:20:40.578Z,71.60
2023-06-04T12:23:08.631Z,71.60
2023-06-04T12:25:38.935Z,71.70
2023-06-04T12:28:18.415Z,71.70
2023-06-04T12:30:45.611Z,71.80
2023-06-04T12:33:14.705Z,71.80
2023-06-04T12:35:41.642Z,71.80
2023-06-04T12:38:11.007Z,71.90
2023-06-04T12:40:38.537Z,71.90
2023-06-04T12:43:07.266Z,72.00
2023-06-04T12:45:35.271Z,72.00
2023-06-04T12:48:02.522Z,72.20
2023-06-04T12:50:30.482Z,72.20
2023-06-04T12:52:57.418Z,72.20
2023-06-04T12:55:26.543Z,72.20
2023-06-04T12:57:55.081Z,72.40
2023-06-04T13:00:22.029Z,72.40
2023-06-04T13:02:50.875Z,72.40
2023-06-04T13:05:17.922Z,72.40
2023-06-04T13:07:44.906Z,72.50
2023-06-04T13:10:11.898Z,72.50
2023-06-04T13:12:38.829Z,72.50
2023-06-04T13:15:07.474Z,72.50
2023-06-04T13:17:34.999Z,72.60
2023-06-04T13:20:02.417Z,72.60
2023-06-04T13:22:29.379Z,72.60
2023-06-04T13:24:56.481Z,72.60
2023-06-04T13:27:23.369Z,72.60
2023-06-04T13:29:51.597Z,72.60
2023-06-04T13:32:18.594Z,72.60
2023-06-04T13:34:45.760Z,72.60
2023-06-04T13:37:14.718Z,72.50
2023-06-04T13:39:41.683Z,72.60
2023-06-04T13:42:09.111Z,72.50
2023-06-04T13:44:36.179Z,72.50
2023-06-04T13:47:04.788Z,72.50
2023-06-04T13:49:34.958Z,72.50
2023-06-04T13:52:02.501Z,72.50
2023-06-04T13:54:29.546Z,72.40
2023-06-04T13:56:57.193Z,72.40
2023-06-04T13:59:24.087Z,72.40
2023-06-04T14:01:51.087Z,72.40
2023-06-04T14:04:18.814Z,72.40
2023-06-04T14:06:45.880Z,72.30
2023-06-04T14:09:13.772Z,72.40
2023-06-04T14:11:41.261Z,72.30
2023-06-04T14:14:09.804Z,72.40
2023-06-04T14:16:37.150Z,72.30
2023-06-04T14:19:04.221Z,72.30
2023-06-04T14:21:31.248Z,72.30
2023-06-04T14:23:58.242Z,72.30
2023-06-04T14:26:25.916Z,72.20
2023-06-04T14:28:53.318Z,72.20
2023-06-04T14:31:21.608Z,72.20
2023-06-04T14:33:48.908Z,72.20
2023-06-04T14:36:16.580Z,72.20
2023-06-04T14:38:45.130Z,72.10
2023-06-04T14:41:12.555Z,72.10
2023-06-04T14:43:39.544Z,72.00
2023-06-04T14:46:06.511Z,72.10
2023-06-04T14:48:33.644Z,72.00
2023-06-04T14:51:00.820Z,72.00
2023-06-04T14:53:29.155Z,72.00
2023-06-04T14:55:56.203Z,72.00
2023-06-04T14:58:23.184Z,72.00
2023-06-04T15:00:51.646Z,71.90
2023-06-04T15:03:18.953Z,72.50
2023-06-04T15:05:46.137Z,71.90
2023-06-04T15:08:13.443Z,71.90
2023-06-04T15:10:40.358Z,72.00
2023-06-04T15:13:07.496Z,71.90
2023-06-04T15:15:35.078Z,71.90
2023-06-04T15:18:02.151Z,72.00
2023-06-04T15:20:29.851Z,72.00
2023-06-04T15:23:12.735Z,72.00
2023-06-04T15:25:41.798Z,72.10
2023-06-04T15:28:10.015Z,72.00
2023-06-04T15:30:37.133Z,72.10
2023-06-04T15:33:04.179Z,72.10
2023-06-04T15:35:31.104Z,72.20
2023-06-04T15:37:58.147Z,72.20
2023-06-04T15:40:25.113Z,72.30
2023-06-04T15:42:52.309Z,72.30
2023-06-04T15:45:22.274Z,72.40
2023-06-04T15:47:51.009Z,72.40
2023-06-04T15:50:18.175Z,72.50
2023-06-04T15:52:46.594Z,72.50
2023-06-04T15:55:13.993Z,72.60
2023-06-04T15:57:40.950Z,72.50
2023-06-04T16:00:09.365Z,72.60
2023-06-04T16:02:36.694Z,72.60
2023-06-04T16:05:04.015Z,72.70
2023-06-04T16:07:31.307Z,72.80
2023-06-04T16:09:58.302Z,72.80
2023-06-04T16:12:25.249Z,72.80
2023-06-04T16:14:52.238Z,73.50
2023-06-04T16:17:19.315Z,72.90
2023-06-04T16:19:47.807Z,73.00
2023-06-04T16:22:16.538Z,73.00
2023-06-04T16:24:44.901Z,73.00
2023-06-04T16:27:12.165Z,73.00
2023-06-04T16:29:39.197Z,73.10
2023-06-04T16:32:07.575Z,73.10
2023-06-04T16:34:34.698Z,73.10
2023-06-04T16:37:01.749Z,73.10
2023-06-04T16:39:28.810Z,73.10
2023-06-04T16:41:59.364Z,73.20
2023-06-04T16:44:27.308Z,73.20
2023-06-04T16:46:54.243Z,73.20
2023-06-04T16:49:21.327Z,73.90
2023-06-04T16:51:48.381Z,73.30
2023-06-04T16:54:15.562Z,73.20
2023-06-04T16:56:42.806Z,73.20
2023-06-04T16:59:09.733Z,73.10
2023-06-04T17:01:38.386Z,73.20
2023-06-04T17:04:05.594Z,73.10
2023-06-04T17:06:32.609Z,73.20
2023-06-04T17:08:59.747Z,73.10
2023-06-04T17:11:27.302Z,73.10
2023-06-04T17:13:54.211Z,73.10
2023-06-04T17:16:21.275Z,73.10
2023-06-04T17:18:48.313Z,73.10
2023-06-04T17:21:18.627Z,73.00
2023-06-04T17:23:49.565Z,73.00
2023-06-04T17:26:16.644Z,72.90
2023-06-04T17:28:45.176Z,73.00
2023-06-04T17:31:18.218Z,73.00
2023-06-04T17:33:46.002Z,73.50
2023-06-04T17:36:13.129Z,72.90
2023-06-04T17:38:40.223Z,72.80
2023-06-04T17:41:07.380Z,72.80
2023-06-04T17:43:36.549Z,72.80
2023-06-04T17:46:03.552Z,72.80
2023-06-04T17:48:30.796Z,72.80
2023-06-04T17:50:57.933Z,72.90
2023-06-04T17:53:25.023Z,73.10
2023-06-04T17:55:52.274Z,73.10
2023-06-04T17:58:19.688Z,73.20
2023-06-04T18:00:47.311Z,73.30
2023-06-04T18:03:15.000Z,73.30
2023-06-04T18:05:43.168Z,73.50
2023-06-04T18:08:13.069Z,73.60
2023-06-04T18:10:40.334Z,73.60
2023-06-04T18:13:07.316Z,73.70
2023-06-04T18:15:34.364Z,73.80
2023-06-04T18:18:01.443Z,73.90
2023-06-04T18:20:28.449Z,73.90
2023-06-04T18:22:55.754Z,74.00
2023-06-04T18:25:24.850Z,74.00
2023-06-04T18:27:51.918Z,74.00
2023-06-04T18:30:18.983Z,74.00
2023-06-04T18:32:48.657Z,74.10
2023-06-04T18:35:16.713Z,74.10
2023-06-04T18:37:44.775Z,74.10
2023-06-04T18:40:13.462Z,74.10
2023-06-04T18:42:41.051Z,74.10
2023-06-04T18:45:10.553Z,74.80
2023-06-04T18:47:38.520Z,74.10
2023-06-04T18:50:06.492Z,74.00
2023-06-04T18:52:39.319Z,74.10
2023-06-04T18:55:10.281Z,74.20
2023-06-04T18:57:37.783Z,74.20
2023-06-04T19:00:08.777Z,74.30
2023-06-04T19:02:39.686Z,74.40
2023-06-04T19:05:10.662Z,74.40
2023-06-04T19:07:38.610Z,75.10
2023-06-04T19:10:06.051Z,74.50
2023-06-04T19:12:32.985Z,74.60
2023-06-04T19:15:00.504Z,74.60
2023-06-04T19:17:30.217Z,74.70
2023-06-04T19:19:57.401Z,74.80
2023-06-04T19:22:24.975Z,74.80
2023-06-04T19:24:52.010Z,74.90
2023-06-04T19:27:21.934Z,74.90
2023-06-04T19:29:49.903Z,75.00
2023-06-04T19:32:16.894Z,75.00
2023-06-04T19:34:44.113Z,75.10
2023-06-04T19:37:13.348Z,75.10
2023-06-04T19:39:40.307Z,75.10
2023-06-04T19:42:07.935Z,75.20
2023-06-04T19:44:34.902Z,75.20
2023-06-04T19:47:03.359Z,75.20
2023-06-04T19:49:30.592Z,75.10
2023-06-04T19:51:57.491Z,75.20
2023-06-04T19:54:24.538Z,75.20
2023-06-04T19:56:51.562Z,75.20
2023-06-04T19:59:18.740Z,75.20
2023-06-04T20:01:46.168Z,75.30
2023-06-04T20:04:13.845Z,75.30
2023-06-04T20:06:41.832Z,75.30
2023-06-04T20:09:08.818Z,75.30
2023-06-04T20:12:07.205Z,75.30
2023-06-04T20:14:34.107Z,75.40
2023-06-04T20:17:01.442Z,75.30
2023-06-04T20:19:28.433Z,75.30
2023-06-04T20:21:55.739Z,75.30
2023-06-04T20:24:23.725Z,75.40
2023-06-04T20:26:52.508Z,75.30
2023-06-04T20:29:19.674Z,75.30
2023-06-04T20:31:46.884Z,75.30
2023-06-04T20:34:14.951Z,75.30
2023-06-04T20:36:42.044Z,75.30
2023-06-04T20:39:08.970Z,75.30
2023-06-04T20:41:35.947Z,75.30
2023-06-04T20:44:03.004Z,75.30
2023-06-04T20:46:32.135Z,75.30
2023-06-04T20:48:59.222Z,75.30
2023-06-04T20:51:26.527Z,75.30
2023-06-04T20:53:53.476Z,75.30
2023-06-04T20:56:20.668Z,75.20
2023-06-04T20:58:49.191Z,75.20
2023-06-04T21:01:17.550Z,75.20
2023-06-04T21:03:45.468Z,75.10
2023-06-04T21:06:12.755Z,75.00
2023-06-04T21:08:39.909Z,75.00
2023-06-04T21:11:07.193Z,75.00
2023-06-04T21:13:35.291Z,75.00
2023-06-04T21:16:02.272Z,74.90
2023-06-04T21:18:29.330Z,74.80
2023-06-04T21:20:56.341Z,74.80
2023-06-04T21:23:25.542Z,74.80
2023-06-04T21:25:52.655Z,74.70
2023-06-04T21:28:19.554Z,74.70
2023-06-04T21:30:46.475Z,74.70
2023-06-04T21:33:14.742Z,74.60
2023-06-04T21:35:41.652Z,74.60
2023-06-04T21:38:09.010Z,74.60
2023-06-04T21:40:36.047Z,74.60
2023-06-04T21:43:03.223Z,74.60
2023-06-04T21:45:31.113Z,74.70
2023-06-04T21:47:58.645Z,74.80
2023-06-04T21:50:25.745Z,74.80
2023-06-04T21:52:52.707Z,74.60
2023-06-04T21:55:19.710Z,74.40
2023-06-04T21:57:46.793Z,74.40
2023-06-04T22:00:14.169Z,74.30
2023-06-04T22:02:41.184Z,74.30
2023-06-04T22:05:09.013Z,74.30
2023-06-04T22:07:36.132Z,74.40
2023-06-04T22:10:05.628Z,74.40
2023-06-04T22:12:32.600Z,74.50
2023-06-04T22:14:59.522Z,74.60
2023-06-04T22:17:26.446Z,74.70
2023-06-04T22:19:53.524Z,74.70
2023-06-04T22:22:20.451Z,74.90
2023-06-04T22:24:47.331Z,74.90
2023-06-04T22:27:14.371Z,75.00
2023-06-04T22:29:41.293Z,75.10
2023-06-04T22:32:08.204Z,75.20
2023-06-04T22:34:35.147Z,75.20
2023-06-04T22:37:02.386Z,75.30
2023-06-04T22:39:30.706Z,75.40
2023-06-04T22:41:57.842Z,75.50
2023-06-04T22:44:24.865Z,75.50
2023-06-04T22:46:51.924Z,75.70
2023-06-04T22:49:18.885Z,75.70
2023-06-04T22:51:46.045Z,75.80
2023-06-04T22:54:13.016Z,75.80
2023-06-04T22:56:39.963Z,75.90
2023-06-04T22:59:06.926Z,76.00
2023-06-04T23:01:34.748Z,76.00
2023-06-04T23:04:03.136Z,76.10
2023-06-04T23:06:30.556Z,76.20
2023-06-04T23:08:57.476Z,76.20
2023-06-04T23:11:24.449Z,76.30
2023-06-04T23:13:51.522Z,76.40
2023-06-04T23:16:20.034Z,76.50
2023-06-04T23:18:46.984Z,76.50
2023-06-04T23:21:14.649Z,76.50
2023-06-04T23:23:42.392Z,76.60
2023-06-04T23:26:09.915Z,76.70
2023-06-04T23:28:36.866Z,76.70
2023-06-04T23:31:03.857Z,76.80
2023-06-04T23:33:31.967Z,76.80
2023-06-04T23:35:58.937Z,76.90
2023-06-04T23:38:26.968Z,77.00
2023-06-04T23:40:53.846Z,77.00
2023-06-04T23:43:20.850Z,77.40
2023-06-04T23:45:47.887Z,77.10
2023-06-04T23:48:16.872Z,77.10
2023-06-04T23:50:43.914Z,77.20
2023-06-04T23:53:11.184Z,77.20
2023-06-04T23:55:39.841Z,77.30
2023-06-04T23:58:07.032Z,77.30
